sensor_id;sensor_type;location;lat;lon;timestamp;temperature;humidity
13231;DHT22;6681;53.254;10.398;2023-04-01T00:01:59;9.60;99.90
13231;DHT22;6681;53.254;10.398;2023-04-01T00:04:24;9.70;99.90
13231;DHT22;6681;53.254;10.398;2023-04-01T00:06:50;9.70;99.90
13231;DHT22;6681;53.254;10.398;2023-04-01T00:09:17;9.90;99.90
13231;DHT22;6681;53.254;10.398;2023-04-01T00:11:43;9.80;99.90
13231;DHT22;6681;53.254;10.398;2023-04-01T00:14:12;9.80;99.90
13231;DHT22;6681;53.254;10.398;2023-04-01T00:16:38;9.80;99.90
13231;DHT22;6681;53.254;10.398;2023-04-01T00:19:03;9.70;99.90
13231;DHT22;6681;53.254;10.398;2023-04-01T00:21:30;9.70;99.90
13231;DHT22;6681;53.254;10.398;2023-04-01T00:23:55;9.60;99.90
13231;DHT22;6681;53.254;10.398;2023-04-01T00:26:21;9.70;99.90
13231;DHT22;6681;53.254;10.398;2023-04-01T00:28:47;9.60;99.90
13231;DHT22;6681;53.254;10.398;2023-04-01T00:31:14;9.70;99.90
13231;DHT22;6681;53.254;10.398;2023-04-01T00:33:40;9.70;99.90
13231;DHT22;6681;53.254;10.398;2023-04-01T00:36:18;9.70;99.90
13231;DHT22;6681;53.254;10.398;2023-04-01T00:38:44;9.80;99.90
13231;DHT22;6681;53.254;10.398;2023-04-01T00:41:12;9.70;99.90
13231;DHT22;6681;53.254;10.398;2023-04-01T00:43:41;9.80;99.90
13231;DHT22;6681;53.254;10.398;2023-04-01T00:46:06;9.70;99.90
13231;DHT22;6681;53.254;10.398;2023-04-01T00:48:38;9.70;99.90
13231;DHT22;6681;53.254;10.398;2023-04-01T00:51:25;9.70;99.90
13231;DHT22;6681;53.254;10.398;2023-04-01T00:53:54;9.80;99.90
13231;DHT22;6681;53.254;10.398;2023-04-01T00:56:41;9.70;99.90
13231;DHT22;6681;53.254;10.398;2023-04-01T00:59:14;9.70;99.90
13231;DHT22;6681;53.254;10.398;2023-04-01T01:01:41;9.70;99.90
13231;DHT22;6681;53.254;10.398;2023-04-01T01:04:06;9.70;99.90
13231;DHT22;6681;53.254;10.398;2023-04-01T01:09:30;9.70;99.90
13231;DHT22;6681;53.254;10.398;2023-04-01T01:12:20;9.60;99.90
13231;DHT22;6681;53.254;10.398;2023-04-01T01:17:41;9.60;99.90
13231;DHT22;6681;53.254;10.398;2023-04-01T01:25:49;9.70;99.90
13231;DHT22;6681;53.254;10.398;2023-04-01T01:34:16;9.50;99.90
13231;DHT22;6681;53.254;10.398;2023-04-01T01:36:45;9.50;99.90
13231;DHT22;6681;53.254;10.398;2023-04-01T01:39:12;9.50;99.90
13231;DHT22;6681;53.254;10.398;2023-04-01T01:41:41;9.60;99.90
13231;DHT22;6681;53.254;10.398;2023-04-01T01:44:09;9.60;99.90
13231;DHT22;6681;53.254;10.398;2023-04-01T01:46:38;9.50;99.90
13231;DHT22;6681;53.254;10.398;2023-04-01T01:49:07;9.70;99.90
13231;DHT22;6681;53.254;10.398;2023-04-01T01:51:34;9.60;99.90
13231;DHT22;6681;53.254;10.398;2023-04-01T01:54:00;9.50;99.90
13231;DHT22;6681;53.254;10.398;2023-04-01T01:56:27;9.50;99.90
13231;DHT22;6681;53.254;10.398;2023-04-01T01:58:59;9.60;99.90
13231;DHT22;6681;53.254;10.398;2023-04-01T02:01:31;9.50;99.90
13231;DHT22;6681;53.254;10.398;2023-04-01T02:03:58;9.60;99.90
13231;DHT22;6681;53.254;10.398;2023-04-01T02:06:27;9.70;99.90
13231;DHT22;6681;53.254;10.398;2023-04-01T02:09:02;9.60;99.90
13231;DHT22;6681;53.254;10.398;2023-04-01T02:11:49;9.70;99.90
13231;DHT22;6681;53.254;10.398;2023-04-01T02:14:17;9.70;99.90
13231;DHT22;6681;53.254;10.398;2023-04-01T02:19:18;9.60;99.90
13231;DHT22;6681;53.254;10.398;2023-04-01T02:21:51;9.60;99.90
13231;DHT22;6681;53.254;10.398;2023-04-01T02:24:20;9.60;99.90
13231;DHT22;6681;53.254;10.398;2023-04-01T02:26:51;9.90;99.90
13231;DHT22;6681;53.254;10.398;2023-04-01T02:29:20;9.60;99.90
13231;DHT22;6681;53.254;10.398;2023-04-01T02:31:46;9.60;99.90
13231;DHT22;6681;53.254;10.398;2023-04-01T02:34:13;9.60;99.90
13231;DHT22;6681;53.254;10.398;2023-04-01T02:36:39;9.70;99.90
13231;DHT22;6681;53.254;10.398;2023-04-01T02:39:05;9.60;99.90
13231;DHT22;6681;53.254;10.398;2023-04-01T02:41:31;9.60;99.90
13231;DHT22;6681;53.254;10.398;2023-04-01T02:44:03;9.50;99.90
13231;DHT22;6681;53.254;10.398;2023-04-01T02:46:29;9.60;99.90
13231;DHT22;6681;53.254;10.398;2023-04-01T02:48:55;9.50;99.90
13231;DHT22;6681;53.254;10.398;2023-04-01T02:51:20;9.50;99.90
13231;DHT22;6681;53.254;10.398;2023-04-01T02:53:46;9.60;99.90
13231;DHT22;6681;53.254;10.398;2023-04-01T02:56:11;9.60;99.90
13231;DHT22;6681;53.254;10.398;2023-04-01T02:58:37;9.70;99.90
13231;DHT22;6681;53.254;10.398;2023-04-01T03:01:02;9.60;99.90
13231;DHT22;6681;53.254;10.398;2023-04-01T03:03:28;9.50;99.90
13231;DHT22;6681;53.254;10.398;2023-04-01T03:05:54;9.50;99.90
13231;DHT22;6681;53.254;10.398;2023-04-01T03:08:24;9.50;99.90
13231;DHT22;6681;53.254;10.398;2023-04-01T03:10:50;9.50;99.90
13231;DHT22;6681;53.254;10.398;2023-04-01T03:13:16;9.50;99.90
13231;DHT22;6681;53.254;10.398;2023-04-01T03:15:41;9.50;99.90
13231;DHT22;6681;53.254;10.398;2023-04-01T03:18:07;9.50;99.90
13231;DHT22;6681;53.254;10.398;2023-04-01T03:20:32;9.50;99.90
13231;DHT22;6681;53.254;10.398;2023-04-01T03:22:58;9.60;99.90
13231;DHT22;6681;53.254;10.398;2023-04-01T03:25:24;9.70;99.90
13231;DHT22;6681;53.254;10.398;2023-04-01T03:27:49;9.70;99.90
13231;DHT22;6681;53.254;10.398;2023-04-01T03:30:15;9.70;99.90
13231;DHT22;6681;53.254;10.398;2023-04-01T03:32:41;9.60;99.90
13231;DHT22;6681;53.254;10.398;2023-04-01T03:35:07;9.60;99.90
13231;DHT22;6681;53.254;10.398;2023-04-01T03:37:32;9.60;99.90
13231;DHT22;6681;53.254;10.398;2023-04-01T03:39:58;9.60;99.90
13231;DHT22;6681;53.254;10.398;2023-04-01T03:42:24;9.60;99.90
13231;DHT22;6681;53.254;10.398;2023-04-01T03:44:49;9.50;99.90
13231;DHT22;6681;53.254;10.398;2023-04-01T03:47:15;9.80;99.90
13231;DHT22;6681;53.254;10.398;2023-04-01T03:49:40;9.50;99.90
13231;DHT22;6681;53.254;10.398;2023-04-01T03:52:10;9.50;99.90
13231;DHT22;6681;53.254;10.398;2023-04-01T03:54:36;9.50;99.90
13231;DHT22;6681;53.254;10.398;2023-04-01T03:57:01;9.50;99.90
13231;DHT22;6681;53.254;10.398;2023-04-01T03:59:27;9.50;99.90
13231;DHT22;6681;53.254;10.398;2023-04-01T04:01:53;9.50;99.90
13231;DHT22;6681;53.254;10.398;2023-04-01T04:04:18;9.60;99.90
13231;DHT22;6681;53.254;10.398;2023-04-01T04:06:44;9.50;99.90
13231;DHT22;6681;53.254;10.398;2023-04-01T04:09:10;9.50;99.90
13231;DHT22;6681;53.254;10.398;2023-04-01T04:11:35;9.50;99.90
13231;DHT22;6681;53.254;10.398;2023-04-01T04:14:01;9.60;99.90
13231;DHT22;6681;53.254;10.398;2023-04-01T04:16:27;9.60;99.90
13231;DHT22;6681;53.254;10.398;2023-04-01T04:18:53;9.70;99.90
13231;DHT22;6681;53.254;10.398;2023-04-01T04:21:18;9.70;99.90
13231;DHT22;6681;53.254;10.398;2023-04-01T04:23:44;9.60;99.90
13231;DHT22;6681;53.254;10.398;2023-04-01T04:26:12;9.60;99.90
13231;DHT22;6681;53.254;10.398;2023-04-01T04:28:38;9.60;99.90
13231;DHT22;6681;53.254;10.398;2023-04-01T04:31:04;9.80;99.90
13231;DHT22;6681;53.254;10.398;2023-04-01T04:33:31;9.60;99.90
13231;DHT22;6681;53.254;10.398;2023-04-01T04:35:58;9.50;99.90
13231;DHT22;6681;53.254;10.398;2023-04-01T04:38:24;9.60;99.90
13231;DHT22;6681;53.254;10.398;2023-04-01T04:40:50;9.60;99.90
13231;DHT22;6681;53.254;10.398;2023-04-01T04:43:17;9.60;99.90
13231;DHT22;6681;53.254;10.398;2023-04-01T04:45:43;9.60;99.90
13231;DHT22;6681;53.254;10.398;2023-04-01T04:48:10;9.70;99.90
13231;DHT22;6681;53.254;10.398;2023-04-01T04:50:40;9.70;99.90
13231;DHT22;6681;53.254;10.398;2023-04-01T04:53:06;9.70;99.90
13231;DHT22;6681;53.254;10.398;2023-04-01T04:55:31;9.70;99.90
13231;DHT22;6681;53.254;10.398;2023-04-01T04:57:57;9.60;99.90
13231;DHT22;6681;53.254;10.398;2023-04-01T05:00:22;9.60;99.90
13231;DHT22;6681;53.254;10.398;2023-04-01T05:02:48;9.60;99.90
13231;DHT22;6681;53.254;10.398;2023-04-01T05:05:14;9.60;99.90
13231;DHT22;6681;53.254;10.398;2023-04-01T05:07:39;9.60;99.90
13231;DHT22;6681;53.254;10.398;2023-04-01T05:10:05;9.70;99.90
13231;DHT22;6681;53.254;10.398;2023-04-01T05:12:31;9.70;99.90
13231;DHT22;6681;53.254;10.398;2023-04-01T05:15:02;9.70;99.90
13231;DHT22;6681;53.254;10.398;2023-04-01T05:17:28;9.70;99.90
13231;DHT22;6681;53.254;10.398;2023-04-01T05:19:53;9.70;99.90
13231;DHT22;6681;53.254;10.398;2023-04-01T05:22:19;9.70;99.90
13231;DHT22;6681;53.254;10.398;2023-04-01T05:24:45;9.80;99.90
13231;DHT22;6681;53.254;10.398;2023-04-01T05:27:11;9.70;99.90
13231;DHT22;6681;53.254;10.398;2023-04-01T05:29:36;9.70;99.90
13231;DHT22;6681;53.254;10.398;2023-04-01T05:32:02;9.60;99.90
13231;DHT22;6681;53.254;10.398;2023-04-01T05:34:27;9.60;99.90
13231;DHT22;6681;53.254;10.398;2023-04-01T05:36:53;9.70;99.90
13231;DHT22;6681;53.254;10.398;2023-04-01T05:39:19;9.70;99.90
13231;DHT22;6681;53.254;10.398;2023-04-01T05:41:47;9.70;99.90
13231;DHT22;6681;53.254;10.398;2023-04-01T05:44:12;9.70;99.90
13231;DHT22;6681;53.254;10.398;2023-04-01T05:46:38;9.70;99.90
13231;DHT22;6681;53.254;10.398;2023-04-01T05:49:03;9.70;99.90
13231;DHT22;6681;53.254;10.398;2023-04-01T05:51:29;9.70;99.90
13231;DHT22;6681;53.254;10.398;2023-04-01T05:53:55;9.80;99.90
13231;DHT22;6681;53.254;10.398;2023-04-01T05:56:20;9.80;99.90
13231;DHT22;6681;53.254;10.398;2023-04-01T05:58:51;9.70;99.90
13231;DHT22;6681;53.254;10.398;2023-04-01T06:01:17;9.80;99.90
13231;DHT22;6681;53.254;10.398;2023-04-01T06:03:44;9.70;99.90
13231;DHT22;6681;53.254;10.398;2023-04-01T06:06:15;9.80;99.90
13231;DHT22;6681;53.254;10.398;2023-04-01T06:08:42;9.80;99.90
13231;DHT22;6681;53.254;10.398;2023-04-01T06:11:17;9.80;99.90
13231;DHT22;6681;53.254;10.398;2023-04-01T06:22:22;9.90;99.90
13231;DHT22;6681;53.254;10.398;2023-04-01T06:31:00;9.90;99.90
13231;DHT22;6681;53.254;10.398;2023-04-01T06:50:34;9.70;99.90
13231;DHT22;6681;53.254;10.398;2023-04-01T06:53:15;9.50;99.90
13231;DHT22;6681;53.254;10.398;2023-04-01T06:55:46;9.30;99.90
13231;DHT22;6681;53.254;10.398;2023-04-01T06:58:25;9.20;99.90
13231;DHT22;6681;53.254;10.398;2023-04-01T07:00:56;9.10;99.90
13231;DHT22;6681;53.254;10.398;2023-04-01T07:03:34;9.10;99.90
13231;DHT22;6681;53.254;10.398;2023-04-01T07:06:09;9.10;99.90
13231;DHT22;6681;53.254;10.398;2023-04-01T07:08:39;9.00;99.90
13231;DHT22;6681;53.254;10.398;2023-04-01T07:11:11;9.00;99.90
13231;DHT22;6681;53.254;10.398;2023-04-01T07:13:49;8.90;99.90
13231;DHT22;6681;53.254;10.398;2023-04-01T07:16:20;9.00;99.90
13231;DHT22;6681;53.254;10.398;2023-04-01T07:21:49;8.60;99.90
13231;DHT22;6681;53.254;10.398;2023-04-01T07:24:29;8.50;99.90
13231;DHT22;6681;53.254;10.398;2023-04-01T07:26:57;8.40;99.90
13231;DHT22;6681;53.254;10.398;2023-04-01T07:29:23;8.40;99.90
13231;DHT22;6681;53.254;10.398;2023-04-01T07:37:58;8.20;99.90
13231;DHT22;6681;53.254;10.398;2023-04-01T07:57:22;7.90;99.90
13231;DHT22;6681;53.254;10.398;2023-04-01T08:00:08;7.90;99.90
13231;DHT22;6681;53.254;10.398;2023-04-01T08:05:29;7.80;99.90
13231;DHT22;6681;53.254;10.398;2023-04-01T08:08:16;7.80;99.90
13231;DHT22;6681;53.254;10.398;2023-04-01T08:14:17;7.80;99.90
13231;DHT22;6681;53.254;10.398;2023-04-01T08:21:52;7.80;99.90
13231;DHT22;6681;53.254;10.398;2023-04-01T08:24:27;7.70;99.90
13231;DHT22;6681;53.254;10.398;2023-04-01T08:26:58;7.80;99.90
13231;DHT22;6681;53.254;10.398;2023-04-01T08:29:51;7.80;99.90
13231;DHT22;6681;53.254;10.398;2023-04-01T08:32:20;7.80;99.90
13231;DHT22;6681;53.254;10.398;2023-04-01T08:35:02;7.80;99.90
13231;DHT22;6681;53.254;10.398;2023-04-01T08:37:36;7.80;99.90
13231;DHT22;6681;53.254;10.398;2023-04-01T08:46:28;7.60;99.90
13231;DHT22;6681;53.254;10.398;2023-04-01T08:49:46;7.50;99.90
13231;DHT22;6681;53.254;10.398;2023-04-01T09:05:35;7.40;99.90
13231;DHT22;6681;53.254;10.398;2023-04-01T09:08:12;7.40;99.90
13231;DHT22;6681;53.254;10.398;2023-04-01T09:16:34;7.50;99.90
13231;DHT22;6681;53.254;10.398;2023-04-01T09:24:26;7.50;99.90
13231;DHT22;6681;53.254;10.398;2023-04-01T09:27:26;7.40;99.90
13231;DHT22;6681;53.254;10.398;2023-04-01T09:37:53;7.20;99.90
13231;DHT22;6681;53.254;10.398;2023-04-01T10:16:21;7.30;99.90
13231;DHT22;6681;53.254;10.398;2023-04-01T10:39:04;7.50;99.90
13231;DHT22;6681;53.254;10.398;2023-04-01T10:47:39;7.40;99.90
13231;DHT22;6681;53.254;10.398;2023-04-01T11:18:17;7.20;99.90
13231;DHT22;6681;53.254;10.398;2023-04-01T11:26:52;7.40;99.90
13231;DHT22;6681;53.254;10.398;2023-04-01T11:34:47;7.50;99.90
13231;DHT22;6681;53.254;10.398;2023-04-01T11:43:18;7.50;99.90
13231;DHT22;6681;53.254;10.398;2023-04-01T11:45:58;7.50;99.90
13231;DHT22;6681;53.254;10.398;2023-04-01T11:51:38;7.70;99.90
13231;DHT22;6681;53.254;10.398;2023-04-01T12:00:02;7.40;99.90
13231;DHT22;6681;53.254;10.398;2023-04-01T12:02:46;7.40;99.90
13231;DHT22;6681;53.254;10.398;2023-04-01T12:05:43;7.20;99.90
13231;DHT22;6681;53.254;10.398;2023-04-01T12:11:38;7.20;99.90
13231;DHT22;6681;53.254;10.398;2023-04-01T12:14:27;7.20;99.90
13231;DHT22;6681;53.254;10.398;2023-04-01T12:17:03;7.50;99.90
13231;DHT22;6681;53.254;10.398;2023-04-01T12:19:55;7.50;99.90
13231;DHT22;6681;53.254;10.398;2023-04-01T12:31:37;7.20;99.90
13231;DHT22;6681;53.254;10.398;2023-04-01T12:33:43;5.90;99.90
13231;DHT22;6681;53.254;10.398;2023-04-01T12:36:35;7.10;99.90
13231;DHT22;6681;53.254;10.398;2023-04-01T12:39:29;7.10;99.90
13231;DHT22;6681;53.254;10.398;2023-04-01T12:45:22;7.10;99.90
13231;DHT22;6681;53.254;10.398;2023-04-01T12:55:49;7.00;99.90
13231;DHT22;6681;53.254;10.398;2023-04-01T13:06:53;7.00;99.90
13231;DHT22;6681;53.254;10.398;2023-04-01T13:28:40;6.80;99.90
13231;DHT22;6681;53.254;10.398;2023-04-01T13:42:47;6.60;99.90
13231;DHT22;6681;53.254;10.398;2023-04-01T13:45:15;6.60;99.90
13231;DHT22;6681;53.254;10.398;2023-04-01T14:07:32;6.40;99.90
13231;DHT22;6681;53.254;10.398;2023-04-01T14:26:22;6.30;99.90
13231;DHT22;6681;53.254;10.398;2023-04-01T14:34:55;6.30;99.90
13231;DHT22;6681;53.254;10.398;2023-04-01T14:41:00;6.10;99.90
13231;DHT22;6681;53.254;10.398;2023-04-01T14:46:17;6.10;99.90
13231;DHT22;6681;53.254;10.398;2023-04-01T14:51:39;6.30;99.90
13231;DHT22;6681;53.254;10.398;2023-04-01T14:54:19;6.30;99.90
13231;DHT22;6681;53.254;10.398;2023-04-01T14:57:09;6.30;99.90
13231;DHT22;6681;53.254;10.398;2023-04-01T14:59:40;6.30;99.90
13231;DHT22;6681;53.254;10.398;2023-04-01T15:08:16;6.00;99.90
13231;DHT22;6681;53.254;10.398;2023-04-01T15:11:19;6.10;99.90
13231;DHT22;6681;53.254;10.398;2023-04-01T15:14:24;6.00;99.90
13231;DHT22;6681;53.254;10.398;2023-04-01T15:28:24;6.10;99.90
13231;DHT22;6681;53.254;10.398;2023-04-01T15:31:13;6.00;99.90
13231;DHT22;6681;53.254;10.398;2023-04-01T15:36:29;6.00;99.90
13231;DHT22;6681;53.254;10.398;2023-04-01T15:47:37;6.00;99.90
13231;DHT22;6681;53.254;10.398;2023-04-01T15:50:25;5.90;99.90
13231;DHT22;6681;53.254;10.398;2023-04-01T15:56:00;5.90;99.90
13231;DHT22;6681;53.254;10.398;2023-04-01T15:58:41;5.90;99.90
13231;DHT22;6681;53.254;10.398;2023-04-01T16:01:16;5.90;99.90
13231;DHT22;6681;53.254;10.398;2023-04-01T16:04:05;5.90;99.90
13231;DHT22;6681;53.254;10.398;2023-04-01T16:06:50;5.90;99.90
13231;DHT22;6681;53.254;10.398;2023-04-01T16:09:34;5.80;99.90
13231;DHT22;6681;53.254;10.398;2023-04-01T16:12:13;5.90;99.90
13231;DHT22;6681;53.254;10.398;2023-04-01T16:20:23;5.60;99.90
13231;DHT22;6681;53.254;10.398;2023-04-01T16:23:24;5.60;99.90
13231;DHT22;6681;53.254;10.398;2023-04-01T16:26:28;5.60;99.90
13231;DHT22;6681;53.254;10.398;2023-04-01T16:29:06;5.60;99.90
13231;DHT22;6681;53.254;10.398;2023-04-01T16:31:43;5.60;99.90
13231;DHT22;6681;53.254;10.398;2023-04-01T16:37:16;5.50;99.90
13231;DHT22;6681;53.254;10.398;2023-04-01T16:39:50;5.60;99.90
13231;DHT22;6681;53.254;10.398;2023-04-01T16:42:53;5.40;99.90
13231;DHT22;6681;53.254;10.398;2023-04-01T16:45:43;5.40;99.90
13231;DHT22;6681;53.254;10.398;2023-04-01T16:48:15;5.30;99.90
13231;DHT22;6681;53.254;10.398;2023-04-01T16:50:59;5.40;99.90
13231;DHT22;6681;53.254;10.398;2023-04-01T16:53:36;5.30;99.90
13231;DHT22;6681;53.254;10.398;2023-04-01T16:59:07;5.10;99.90
13231;DHT22;6681;53.254;10.398;2023-04-01T17:02:27;5.10;99.90
13231;DHT22;6681;53.254;10.398;2023-04-01T17:10:40;5.20;99.90
13231;DHT22;6681;53.254;10.398;2023-04-01T17:13:32;5.10;99.90
13231;DHT22;6681;53.254;10.398;2023-04-01T17:29:37;4.80;99.90
13231;DHT22;6681;53.254;10.398;2023-04-01T17:32:25;4.80;99.90
13231;DHT22;6681;53.254;10.398;2023-04-01T17:45:56;4.70;99.90
13231;DHT22;6681;53.254;10.398;2023-04-01T17:51:17;4.70;99.90
13231;DHT22;6681;53.254;10.398;2023-04-01T17:56:59;4.60;99.90
13231;DHT22;6681;53.254;10.398;2023-04-01T18:08:35;4.50;99.90
13231;DHT22;6681;53.254;10.398;2023-04-01T18:16:40;4.50;99.90
13231;DHT22;6681;53.254;10.398;2023-04-01T18:19:21;4.50;99.90
13231;DHT22;6681;53.254;10.398;2023-04-01T18:21:53;4.50;99.90
13231;DHT22;6681;53.254;10.398;2023-04-01T18:27:04;4.50;99.90
13231;DHT22;6681;53.254;10.398;2023-04-01T18:29:50;4.50;99.90
13231;DHT22;6681;53.254;10.398;2023-04-01T18:32:41;4.50;99.90
13231;DHT22;6681;53.254;10.398;2023-04-01T18:35:27;4.50;99.90
13231;DHT22;6681;53.254;10.398;2023-04-01T18:40:35;4.40;99.90
13231;DHT22;6681;53.254;10.398;2023-04-01T18:45:54;4.30;99.90
13231;DHT22;6681;53.254;10.398;2023-04-01T18:51:03;4.30;99.90
13231;DHT22;6681;53.254;10.398;2023-04-01T18:53:55;4.20;99.90
13231;DHT22;6681;53.254;10.398;2023-04-01T18:56:30;4.30;99.90
13231;DHT22;6681;53.254;10.398;2023-04-01T19:04:52;4.20;99.90
13231;DHT22;6681;53.254;10.398;2023-04-01T19:10:17;4.20;99.90
13231;DHT22;6681;53.254;10.398;2023-04-01T19:16:00;4.10;99.90
13231;DHT22;6681;53.254;10.398;2023-04-01T19:18:45;4.20;99.90
13231;DHT22;6681;53.254;10.398;2023-04-01T19:21:26;4.20;99.90
13231;DHT22;6681;53.254;10.398;2023-04-01T19:24:24;4.20;99.90
13231;DHT22;6681;53.254;10.398;2023-04-01T19:33:07;4.20;99.90
13231;DHT22;6681;53.254;10.398;2023-04-01T19:35:58;4.10;99.90
13231;DHT22;6681;53.254;10.398;2023-04-01T19:38:52;4.10;99.90
13231;DHT22;6681;53.254;10.398;2023-04-01T19:41:40;4.10;99.90
13231;DHT22;6681;53.254;10.398;2023-04-01T19:46:42;4.00;99.90
13231;DHT22;6681;53.254;10.398;2023-04-01T19:52:09;4.00;99.90
13231;DHT22;6681;53.254;10.398;2023-04-01T19:54:50;4.00;99.90
13231;DHT22;6681;53.254;10.398;2023-04-01T20:08:17;3.90;99.90
13231;DHT22;6681;53.254;10.398;2023-04-01T20:11:04;3.90;99.90
13231;DHT22;6681;53.254;10.398;2023-04-01T20:16:21;3.90;99.90
13231;DHT22;6681;53.254;10.398;2023-04-01T20:19:01;3.90;99.90
13231;DHT22;6681;53.254;10.398;2023-04-01T20:24:17;3.90;99.90
13231;DHT22;6681;53.254;10.398;2023-04-01T20:26:59;4.00;99.90
13231;DHT22;6681;53.254;10.398;2023-04-01T20:41:40;3.70;99.90
13231;DHT22;6681;53.254;10.398;2023-04-01T20:44:12;3.60;99.90
13231;DHT22;6681;53.254;10.398;2023-04-01T20:47:01;4.40;99.90
13231;DHT22;6681;53.254;10.398;2023-04-01T20:49:48;4.60;99.90
13231;DHT22;6681;53.254;10.398;2023-04-01T20:52:40;3.50;99.90
13231;DHT22;6681;53.254;10.398;2023-04-01T20:55:52;3.30;99.90
13231;DHT22;6681;53.254;10.398;2023-04-01T21:04:40;3.20;99.90
13231;DHT22;6681;53.254;10.398;2023-04-01T21:12:34;3.10;99.90
13231;DHT22;6681;53.254;10.398;2023-04-01T21:20:39;3.10;99.90
13231;DHT22;6681;53.254;10.398;2023-04-01T21:37:03;2.90;99.90
13231;DHT22;6681;53.254;10.398;2023-04-01T21:42:39;2.70;99.90
13231;DHT22;6681;53.254;10.398;2023-04-01T21:45:20;2.90;99.90
13231;DHT22;6681;53.254;10.398;2023-04-01T21:52:56;2.50;99.90
13231;DHT22;6681;53.254;10.398;2023-04-01T22:07:14;2.40;99.90
13231;DHT22;6681;53.254;10.398;2023-04-01T22:12:59;2.40;99.90
13231;DHT22;6681;53.254;10.398;2023-04-01T22:21:12;2.30;99.90
13231;DHT22;6681;53.254;10.398;2023-04-01T22:26:52;2.20;99.90
13231;DHT22;6681;53.254;10.398;2023-04-01T22:29:47;2.20;99.90
13231;DHT22;6681;53.254;10.398;2023-04-01T22:35:24;2.20;99.90
13231;DHT22;6681;53.254;10.398;2023-04-01T22:43:11;2.10;99.90
13231;DHT22;6681;53.254;10.398;2023-04-01T22:45:59;2.10;99.90
13231;DHT22;6681;53.254;10.398;2023-04-01T22:51:42;2.10;99.90
13231;DHT22;6681;53.254;10.398;2023-04-01T22:54:52;2.10;99.90
13231;DHT22;6681;53.254;10.398;2023-04-01T23:00:30;2.00;99.90
13231;DHT22;6681;53.254;10.398;2023-04-01T23:05:43;1.90;99.90
13231;DHT22;6681;53.254;10.398;2023-04-01T23:11:07;1.90;99.90
13231;DHT22;6681;53.254;10.398;2023-04-01T23:13:44;2.10;99.90
13231;DHT22;6681;53.254;10.398;2023-04-01T23:16:11;1.90;99.90
13231;DHT22;6681;53.254;10.398;2023-04-01T23:21:30;1.90;99.90
13231;DHT22;6681;53.254;10.398;2023-04-01T23:24:15;1.90;99.90
13231;DHT22;6681;53.254;10.398;2023-04-01T23:29:41;1.90;99.90
13231;DHT22;6681;53.254;10.398;2023-04-01T23:32:18;1.90;99.90
13231;DHT22;6681;53.254;10.398;2023-04-01T23:34:50;1.90;99.90
13231;DHT22;6681;53.254;10.398;2023-04-01T23:37:17;1.90;99.90
13231;DHT22;6681;53.254;10.398;2023-04-01T23:39:56;1.90;99.90
13231;DHT22;6681;53.254;10.398;2023-04-01T23:42:31;1.90;99.90
13231;DHT22;6681;53.254;10.398;2023-04-01T23:45:18;1.90;99.90
13231;DHT22;6681;53.254;10.398;2023-04-01T23:47:47;2.10;99.90
13231;DHT22;6681;53.254;10.398;2023-04-01T23:50:21;1.80;99.90
13231;DHT22;6681;53.254;10.398;2023-04-01T23:52:53;1.80;99.90
13231;DHT22;6681;53.254;10.398;2023-04-01T23:55:30;1.80;99.90
